Terminal Aerodrome Forecast
Issued by NWS

Home | Current Version | Previous Version | Text Only | Print | Product List | Glossary On
Versions: 1 2 3 4 5 6 7 8 9 10 11 12 13 14 15 16 17 18 19 20
000
FTUS43 KIND 242300
TAFLAF
TAF
KLAF 242320Z 2500/2524 27011KT P6SM VCSH OVC010
      TEMPO 2509/2513 OVC008
     FM251300 24008KT P6SM OVC012
     FM251700 22009KT P6SM BKN025
     FM252300 20008KT P6SM SCT030 BKN250=

USA.gov is the U.S. government's official web portal to all federal, state and local government web resources and services.